Time;durP1;ratioP1;P1;durP2;ratioP2;P2;SDS_P1;SDS_P2;PMS_P1;PMS_P2;Temp;Humidity;BMP_temperature;BMP_pressure;BME280_temperature;BME280_humidity;BME280_pressure;Samples;Min_cycle;Max_cycle;Signal;HPM_P1;HPM_P2
2023/05/14 00:01:36;;;;;;;14.43;9.43;;;8.40;99.90;;;-148.53;100.00;63986.66;5054105;28;20080;-77
2023/05/14 00:04:02;;;;;;;12.90;9.82;;;8.40;99.90;;;-148.53;100.00;63986.66;5054359;28;20068;-77
2023/05/14 00:06:28;;;;;;;15.73;10.23;;;8.30;99.90;;;-148.53;100.00;63986.66;5053342;28;20083;-77
2023/05/14 00:08:54;;;;;;;10.75;8.90;;;8.30;99.90;;;-148.53;100.00;63986.66;5070018;28;20033;-76
2023/05/14 00:11:20;;;;;;;11.50;9.55;;;8.30;99.90;;;-148.53;100.00;63986.66;5054446;28;20106;-75
2023/05/14 00:13:46;;;;;;;13.40;9.48;;;8.20;99.90;;;-148.53;100.00;63986.66;5053037;28;20033;-77
2023/05/14 00:16:12;;;;;;;12.85;9.45;;;8.10;99.90;;;-148.53;100.00;63986.66;5059151;28;20041;-77
2023/05/14 00:18:37;;;;;;;13.20;9.73;;;8.00;99.90;;;-148.53;100.00;63986.66;5053973;28;20433;-77
2023/05/14 00:21:03;;;;;;;13.98;9.93;;;8.10;99.90;;;-148.53;100.00;63986.66;5054045;28;20075;-77
2023/05/14 00:23:29;;;;;;;13.55;9.85;;;8.00;99.90;;;-148.53;100.00;63986.66;5053362;28;20044;-76
2023/05/14 00:25:55;;;;;;;11.70;9.18;;;8.00;99.90;;;-148.53;100.00;63986.66;5058721;28;20036;-77
2023/05/14 00:28:20;;;;;;;15.48;10.45;;;8.00;99.90;;;-148.53;100.00;63986.66;5053537;28;20048;-77
2023/05/14 00:30:47;;;;;;;13.38;10.20;;;8.00;99.90;;;-148.53;100.00;63986.66;5074345;28;20140;-77
2023/05/14 00:33:14;;;;;;;12.52;9.68;;;7.90;99.90;;;-148.53;100.00;63986.66;5054274;28;20029;-77
2023/05/14 00:35:40;;;;;;;14.63;10.43;;;7.90;99.90;;;-148.53;100.00;63986.66;5053687;28;20044;-77
2023/05/14 00:38:06;;;;;;;12.48;9.75;;;7.90;99.90;;;-148.53;100.00;63986.66;5059298;28;20039;-77
2023/05/14 00:40:31;;;;;;;12.45;10.40;;;7.80;99.90;;;-148.53;100.00;63986.66;5051978;28;20044;-76
2023/05/14 00:42:57;;;;;;;14.98;10.35;;;7.70;99.90;;;-148.53;100.00;63986.66;5068852;28;20048;-76
2023/05/14 00:45:24;;;;;;;13.52;9.88;;;7.60;99.90;;;-148.53;100.00;63986.66;5053452;28;20036;-76
2023/05/14 00:47:50;;;;;;;13.43;10.38;;;7.50;99.90;;;-148.53;100.00;63986.66;5058849;28;20060;-76
2023/05/14 00:50:17;;;;;;;14.15;10.80;;;7.50;99.90;;;-148.53;100.00;63986.66;5053781;28;20057;-76
2023/05/14 00:52:43;;;;;;;14.45;10.75;;;7.50;99.90;;;-148.53;100.00;63986.66;5053499;28;20041;-76
2023/05/14 00:55:12;;;;;;;18.17;11.23;;;7.50;99.90;;;-148.53;100.00;63986.66;5052318;28;20099;-76
2023/05/14 00:57:37;;;;;;;14.27;10.88;;;7.50;99.90;;;-148.53;100.00;63986.66;5082475;28;20064;-76
2023/05/14 01:00:04;;;;;;;15.02;11.32;;;7.50;99.90;;;-148.53;100.00;63986.66;5068435;28;20154;-76
2023/05/14 01:02:30;;;;;;;16.90;12.57;;;7.50;99.90;;;-148.53;100.00;63986.66;5063278;28;20025;-76
2023/05/14 01:04:56;;;;;;;14.27;11.73;;;7.50;99.90;;;-148.53;100.00;63986.66;5053398;28;20048;-77
2023/05/14 01:07:45;;;;;;;14.75;10.85;;;7.50;99.90;;;-148.53;100.00;63986.66;5058168;28;20044;-77
2023/05/14 01:10:20;;;;;;;14.90;11.63;;;7.50;99.90;;;-148.53;100.00;63986.66;5058578;28;20078;-77
2023/05/14 01:13:25;;;;;;;14.93;11.63;;;7.40;99.90;;;-148.53;100.00;63986.66;5060602;28;20069;-77
2023/05/14 01:15:56;;;;;;;13.52;10.40;;;7.30;99.90;;;-148.53;100.00;63986.66;5052343;28;20099;-77
2023/05/14 01:18:23;;;;;;;14.50;11.68;;;7.30;99.90;;;-148.53;100.00;63986.66;5052798;28;20052;-77
2023/05/14 01:20:53;;;;;;;15.48;12.70;;;7.20;99.90;;;-148.53;100.00;63986.66;5039052;28;20140;-77
2023/05/14 01:23:19;;;;;;;13.95;12.45;;;7.30;99.90;;;-148.53;100.00;63986.66;5052417;28;20052;-77
2023/05/14 01:25:44;;;;;;;15.70;12.45;;;7.40;99.90;;;-148.53;100.00;63986.66;5052854;28;20056;-77
2023/05/14 01:28:25;;;;;;;14.88;11.65;;;7.30;99.90;;;-148.53;100.00;63986.66;5058347;28;20128;-77
2023/05/14 01:31:02;;;;;;;18.10;12.95;;;7.20;99.90;;;-148.53;100.00;63986.66;5057822;28;20040;-77
2023/05/14 01:33:32;;;;;;;15.70;11.90;;;7.20;99.90;;;-148.53;100.00;63986.66;5034305;28;20025;-77
2023/05/14 01:35:59;;;;;;;19.77;14.40;;;7.20;99.90;;;-148.53;100.00;63986.66;5052529;28;20437;-77
2023/05/14 01:38:29;;;;;;;17.52;14.18;;;7.30;99.90;;;-148.53;100.00;63986.66;5053050;28;20041;-77
2023/05/14 01:40:56;;;;;;;17.48;13.70;;;7.30;99.90;;;-148.53;100.00;63986.66;5054864;28;20441;-77
2023/05/14 01:43:23;;;;;;;20.42;14.80;;;7.30;99.90;;;-148.53;100.00;63986.66;5058056;28;20111;-77
2023/05/14 01:45:48;;;;;;;17.20;13.02;;;7.30;99.90;;;-148.53;100.00;63986.66;5056755;28;20029;-77
2023/05/14 01:48:14;;;;;;;15.90;12.85;;;7.30;99.90;;;-148.53;100.00;63986.66;5059327;28;20375;-77
2023/05/14 01:50:40;;;;;;;16.75;13.32;;;7.20;99.90;;;-148.53;100.00;63986.66;5056957;28;20108;-77
2023/05/14 01:53:06;;;;;;;17.58;13.43;;;7.30;99.90;;;-148.53;100.00;63986.66;5052500;28;20491;-77
2023/05/14 01:55:32;;;;;;;17.20;13.00;;;7.30;99.90;;;-148.53;100.00;63986.66;5053036;28;20409;-77
2023/05/14 01:57:58;;;;;;;17.65;13.10;;;7.20;99.90;;;-148.53;100.00;63986.66;5051647;28;20037;-77
2023/05/14 02:00:24;;;;;;;18.38;13.20;;;7.20;99.90;;;-148.53;100.00;63986.66;5051016;28;20159;-77
2023/05/14 02:02:50;;;;;;;17.52;13.50;;;7.20;99.90;;;-148.53;100.00;63986.66;5052569;28;20048;-77
2023/05/14 02:05:16;;;;;;;15.77;12.60;;;7.20;99.90;;;-148.53;100.00;63986.66;5052352;28;20405;-77
2023/05/14 02:07:42;;;;;;;15.48;12.45;;;7.20;99.90;;;-148.53;100.00;63986.66;5051547;28;20123;-77
2023/05/14 02:10:08;;;;;;;18.27;13.10;;;7.10;99.90;;;-148.53;100.00;63986.66;5052134;28;20116;-77
2023/05/14 02:12:34;;;;;;;17.67;13.38;;;7.00;99.90;;;-148.53;100.00;63986.66;5056999;28;20029;-77
2023/05/14 02:15:02;;;;;;;16.38;13.10;;;7.10;99.90;;;-148.53;100.00;63986.66;5066748;28;20489;-77
2023/05/14 02:17:28;;;;;;;16.75;12.98;;;7.00;99.90;;;-148.53;100.00;63986.66;5066497;28;20066;-77
2023/05/14 02:19:54;;;;;;;16.55;12.60;;;7.00;99.90;;;-148.53;100.00;63986.66;5053826;28;20033;-77
2023/05/14 02:22:20;;;;;;;17.58;13.07;;;7.00;99.90;;;-148.53;100.00;63986.66;5052247;28;20047;-77
2023/05/14 02:24:45;;;;;;;15.85;12.63;;;7.00;99.90;;;-148.53;100.00;63986.66;5059607;28;20055;-78
2023/05/14 02:27:12;;;;;;;18.30;13.35;;;7.00;99.90;;;-148.53;100.00;63986.66;5051809;28;20044;-77
2023/05/14 02:29:38;;;;;;;14.05;11.77;;;7.00;99.90;;;-148.53;100.00;63986.66;5050109;28;20041;-77
2023/05/14 02:32:04;;;;;;;16.13;12.00;;;6.90;99.90;;;-148.53;100.00;63986.66;5051663;28;20388;-77
2023/05/14 02:34:32;;;;;;;12.85;10.40;;;6.80;99.90;;;-148.53;100.00;63986.66;5067443;28;20056;-77
2023/05/14 02:36:58;;;;;;;14.23;11.55;;;6.70;99.90;;;-148.53;100.00;63986.66;5051867;28;20081;-76
2023/05/14 02:39:23;;;;;;;16.08;12.75;;;6.60;99.90;;;-148.53;100.00;63986.66;5051372;28;20041;-76
2023/05/14 02:41:49;;;;;;;17.55;13.05;;;6.60;99.90;;;-148.53;100.00;63986.66;5067439;28;20047;-76
2023/05/14 02:44:16;;;;;;;18.35;14.10;;;6.50;99.90;;;-148.53;100.00;63986.66;5072051;28;20029;-76
2023/05/14 02:46:42;;;;;;;17.00;13.70;;;6.50;99.90;;;-148.53;100.00;63986.66;5055224;28;20079;-76
2023/05/14 02:49:08;;;;;;;16.90;13.40;;;6.50;99.90;;;-148.53;100.00;63986.66;5057976;28;20464;-76
2023/05/14 02:51:34;;;;;;;16.65;13.15;;;6.50;99.90;;;-148.53;100.00;63986.66;5053541;28;20083;-76
2023/05/14 02:53:59;;;;;;;16.63;12.50;;;6.50;99.90;;;-148.53;100.00;63986.66;5050730;28;20082;-76
2023/05/14 02:56:25;;;;;;;16.73;12.23;;;6.50;99.90;;;-148.53;100.00;63986.66;5051409;28;20025;-76
2023/05/14 02:58:51;;;;;;;17.77;12.48;;;6.50;99.90;;;-148.53;100.00;63986.66;5051557;28;20133;-76
2023/05/14 03:01:17;;;;;;;16.77;12.73;;;6.50;99.90;;;-148.53;100.00;63986.66;5059913;28;20039;-76
2023/05/14 03:03:43;;;;;;;15.73;12.68;;;6.50;99.90;;;-148.53;100.00;63986.66;5055161;28;20488;-75
2023/05/14 03:06:09;;;;;;;16.88;12.70;;;6.50;99.90;;;-148.53;100.00;63986.66;5054285;28;20083;-75
2023/05/14 03:08:34;;;;;;;15.65;12.73;;;6.40;99.90;;;-148.53;100.00;63986.66;5062011;28;20075;-75
2023/05/14 03:11:00;;;;;;;16.70;12.52;;;6.40;99.90;;;-148.53;100.00;63986.66;5055190;28;20040;-75
2023/05/14 03:13:26;;;;;;;15.88;12.90;;;6.40;99.90;;;-148.53;100.00;63986.66;5054988;28;20477;-76
2023/05/14 03:15:55;;;;;;;15.57;13.05;;;6.40;99.90;;;-148.53;100.00;63986.66;5055129;28;20058;-76
2023/05/14 03:18:21;;;;;;;15.52;11.63;;;6.20;99.90;;;-148.53;100.00;63986.66;5069886;28;20443;-76
2023/05/14 03:20:47;;;;;;;15.98;12.82;;;6.10;99.90;;;-148.53;100.00;63986.66;5062587;28;20045;-76
2023/05/14 03:23:13;;;;;;;15.60;12.35;;;6.00;99.90;;;-148.53;100.00;63986.66;5055527;28;20033;-76
2023/05/14 03:25:39;;;;;;;16.73;12.60;;;5.90;99.90;;;-148.53;100.00;63986.66;5054886;28;20040;-76
2023/05/14 03:28:05;;;;;;;16.33;11.77;;;5.80;99.90;;;-148.53;100.00;63986.66;5054617;28;20596;-76
2023/05/14 03:30:32;;;;;;;15.45;11.95;;;5.80;99.90;;;-148.53;100.00;63986.66;5060686;28;20037;-76
2023/05/14 03:32:58;;;;;;;17.13;13.27;;;5.80;99.90;;;-148.53;100.00;63986.66;5069444;28;20484;-76
2023/05/14 03:35:23;;;;;;;20.95;14.25;;;5.80;99.90;;;-148.53;100.00;63986.66;5054719;28;20033;-76
2023/05/14 03:37:51;;;;;;;18.30;14.15;;;5.90;99.90;;;-148.53;100.00;63986.66;5053723;28;20554;-76
2023/05/14 03:40:17;;;;;;;19.17;13.35;;;6.00;99.90;;;-148.53;100.00;63986.66;5070155;28;20033;-76
2023/05/14 03:42:43;;;;;;;17.70;13.55;;;6.00;99.90;;;-148.53;100.00;63986.66;5060052;28;20106;-77
2023/05/14 03:45:09;;;;;;;18.40;14.50;;;6.10;99.90;;;-148.53;100.00;63986.66;5053507;28;20378;-77
2023/05/14 03:47:35;;;;;;;21.60;15.18;;;6.20;99.90;;;-148.53;100.00;63986.66;5053487;28;20139;-77
2023/05/14 03:50:01;;;;;;;18.50;14.23;;;6.50;99.90;;;-148.53;100.00;63986.66;5054635;28;20029;-77
2023/05/14 03:52:26;;;;;;;19.02;14.75;;;6.70;99.90;;;-148.53;100.00;63986.66;5086830;28;20029;-77
2023/05/14 03:54:52;;;;;;;18.63;14.98;;;6.80;99.90;;;-148.53;100.00;63986.66;5054683;28;20043;-76
2023/05/14 03:57:18;;;;;;;19.67;14.90;;;7.00;99.90;;;-148.53;100.00;63986.66;5054422;28;20036;-76
2023/05/14 03:59:43;;;;;;;21.10;14.93;;;7.00;99.90;;;-148.53;100.00;63986.66;5053198;28;20516;-77
2023/05/14 04:02:09;;;;;;;19.73;15.05;;;7.10;99.90;;;-148.53;100.00;63986.66;5069145;28;20029;-76
2023/05/14 04:04:35;;;;;;;21.02;14.57;;;7.20;99.90;;;-148.53;100.00;63986.66;5074040;28;20361;-75
2023/05/14 04:07:01;;;;;;;18.05;14.40;;;7.20;99.90;;;-148.53;100.00;63986.66;5067177;28;20067;-77
2023/05/14 04:09:28;;;;;;;19.48;14.05;;;7.20;99.90;;;-148.53;100.00;63986.66;5062179;28;20416;-76
2023/05/14 04:11:53;;;;;;;19.60;14.73;;;7.40;99.90;;;-148.53;100.00;63986.66;5058264;28;20048;-76
2023/05/14 04:14:19;;;;;;;18.88;14.52;;;7.30;99.90;;;-148.53;100.00;63986.66;5068820;28;20028;-76
2023/05/14 04:16:45;;;;;;;19.15;14.57;;;7.40;99.90;;;-148.53;100.00;63986.66;5053499;28;20460;-77
2023/05/14 04:19:11;;;;;;;17.90;13.85;;;7.30;99.90;;;-148.53;100.00;63986.66;5069495;28;20056;-76
2023/05/14 04:21:37;;;;;;;17.05;13.48;;;7.40;99.90;;;-148.53;100.00;63986.66;5060092;28;20043;-76
2023/05/14 04:24:02;;;;;;;17.55;13.88;;;7.40;99.90;;;-148.53;100.00;63986.66;5059514;28;20079;-76
2023/05/14 04:26:28;;;;;;;17.80;14.57;;;7.40;99.90;;;-148.53;100.00;63986.66;5053539;28;20060;-76
2023/05/14 04:28:54;;;;;;;21.13;14.32;;;7.50;99.90;;;-148.53;100.00;63986.66;5056890;28;20397;-76
2023/05/14 04:31:20;;;;;;;19.50;15.25;;;7.60;99.90;;;-148.53;100.00;63986.66;5063100;28;20072;-76
2023/05/14 04:33:46;;;;;;;18.08;14.60;;;7.60;99.90;;;-148.53;100.00;63986.66;5068059;28;20033;-76
2023/05/14 04:36:12;;;;;;;22.08;14.68;;;7.70;99.90;;;-148.53;100.00;63986.66;5066678;28;20388;-75
2023/05/14 04:38:37;;;;;;;21.70;15.52;;;7.80;99.90;;;-148.53;100.00;63986.66;5068165;28;20033;-75
2023/05/14 04:41:03;;;;;;;22.60;16.67;;;7.80;99.90;;;-148.53;100.00;63986.66;5065036;28;20040;-76
2023/05/14 04:43:29;;;;;;;22.77;15.88;;;7.90;99.90;;;-148.53;100.00;63986.66;5063677;28;20064;-76
2023/05/14 04:45:54;;;;;;;21.40;15.90;;;8.00;99.90;;;-148.53;100.00;63986.66;5052117;28;20033;-75
2023/05/14 04:48:21;;;;;;;23.08;16.58;;;8.10;99.90;;;-148.53;100.00;63986.66;5055700;28;20488;-75
2023/05/14 04:50:47;;;;;;;21.95;16.70;;;8.10;99.90;;;-148.53;100.00;63986.66;5069129;28;20087;-75
2023/05/14 04:53:12;;;;;;;21.92;16.30;;;8.20;99.90;;;-148.53;100.00;63986.66;5053484;28;20036;-75
2023/05/14 04:55:38;;;;;;;24.17;16.98;;;8.30;99.90;;;-148.53;100.00;63986.66;5053616;28;20040;-75
2023/05/14 04:58:04;;;;;;;22.50;16.20;;;8.40;99.90;;;-148.53;100.00;63986.66;5053120;28;20040;-75
2023/05/14 05:00:29;;;;;;;20.85;16.50;;;8.50;99.90;;;-148.53;100.00;63986.66;5053886;28;20512;-76
2023/05/14 05:02:55;;;;;;;22.95;16.77;;;8.60;99.90;;;-148.53;100.00;63986.66;5053497;28;20041;-79
2023/05/14 05:05:21;;;;;;;22.92;17.73;;;8.70;99.90;;;-148.53;100.00;63986.66;5055962;28;20426;-75
2023/05/14 05:07:47;;;;;;;23.30;17.30;;;8.90;99.90;;;-148.53;100.00;63986.66;5073277;28;20056;-75
2023/05/14 05:10:13;;;;;;;21.40;16.85;;;9.00;99.90;;;-148.53;100.00;63986.66;5069882;28;20043;-74
2023/05/14 05:12:38;;;;;;;23.10;17.65;;;9.10;99.90;;;-148.53;100.00;63986.66;5064106;28;20545;-75
2023/05/14 05:15:05;;;;;;;25.35;17.60;;;9.30;99.90;;;-148.53;100.00;63986.66;5051742;28;20041;-75
2023/05/14 05:17:31;;;;;;;21.60;17.20;;;9.50;99.90;;;-148.53;100.00;63986.66;5054374;28;20046;-75
2023/05/14 05:19:57;;;;;;;20.88;16.70;;;9.60;99.90;;;-148.53;100.00;63986.66;5053985;28;20041;-77
2023/05/14 05:22:23;;;;;;;20.25;16.45;;;9.80;99.90;;;-148.53;100.00;63986.66;5052117;28;20032;-74
2023/05/14 05:24:49;;;;;;;19.23;14.18;;;9.90;99.90;;;-148.53;100.00;63986.66;5064616;28;20036;-74
2023/05/14 05:27:16;;;;;;;18.05;13.85;;;10.00;99.90;;;-148.53;100.00;63986.66;5052314;28;20120;-76
2023/05/14 05:29:43;;;;;;;14.55;12.68;;;10.10;99.90;;;-148.53;100.00;63986.66;5052732;28;20052;-75
2023/05/14 05:32:10;;;;;;;14.77;11.73;;;10.30;99.90;;;-148.53;100.00;63986.66;5057319;28;20537;-75
2023/05/14 05:34:36;;;;;;;14.77;11.98;;;10.50;99.90;;;-148.53;100.00;63986.66;5051950;28;20123;-75
2023/05/14 05:37:02;;;;;;;14.65;11.60;;;10.70;99.90;;;-148.53;100.00;63986.66;5052295;28;20055;-75
2023/05/14 05:39:33;;;;;;;14.60;11.25;;;10.80;99.90;;;-148.53;100.00;63986.66;5058823;28;20024;-75
2023/05/14 05:42:01;;;;;;;15.40;11.40;;;11.00;99.90;;;-148.53;100.00;63986.66;5054726;28;20071;-75
2023/05/14 05:44:26;;;;;;;13.57;11.43;;;11.20;99.90;;;-148.53;100.00;63986.66;5052513;28;20040;-75
2023/05/14 05:46:54;;;;;;;14.35;11.05;;;11.40;99.90;;;-148.53;100.00;63986.66;5052077;28;20052;-75
2023/05/14 05:49:20;;;;;;;14.13;11.00;;;11.60;99.90;;;-148.53;100.00;63986.66;5051992;28;20033;-74
2023/05/14 05:51:46;;;;;;;12.57;10.15;;;11.80;99.90;;;-148.53;100.00;63986.66;5057324;28;20386;-74
2023/05/14 05:54:11;;;;;;;12.48;10.68;;;12.00;99.90;;;-148.53;100.00;63986.66;5052056;28;20036;-74
2023/05/14 05:56:37;;;;;;;11.98;10.02;;;12.10;99.90;;;-148.53;100.00;63986.66;5052335;28;20064;-74
2023/05/14 05:59:03;;;;;;;11.25;9.70;;;12.30;99.90;;;-148.53;100.00;63986.66;5051877;28;20043;-74
2023/05/14 06:01:29;;;;;;;12.02;10.05;;;12.50;99.90;;;-148.53;100.00;63986.66;5050921;28;20066;-74
2023/05/14 06:03:55;;;;;;;13.02;9.75;;;12.70;99.90;;;-148.53;100.00;63986.66;5052251;28;20090;-74
2023/05/14 06:06:21;;;;;;;11.25;9.07;;;12.80;99.90;;;-148.53;100.00;63986.66;5053864;28;20072;-74
2023/05/14 06:08:46;;;;;;;12.63;9.07;;;12.90;99.90;;;-148.53;100.00;63986.66;5050501;28;20044;-75
2023/05/14 06:11:12;;;;;;;11.65;9.18;;;13.10;99.90;;;-148.53;100.00;63986.66;5054602;28;20082;-75
2023/05/14 06:13:38;;;;;;;11.80;9.02;;;13.30;99.90;;;-148.53;100.00;63986.66;5065145;28;20083;-75
2023/05/14 06:16:04;;;;;;;9.02;8.02;;;13.40;99.90;;;-148.53;100.00;63986.66;5061209;28;20032;-74
2023/05/14 06:18:29;;;;;;;10.90;7.80;;;13.40;99.90;;;-148.53;100.00;63986.66;5056326;28;20479;-75
2023/05/14 06:20:56;;;;;;;9.77;7.45;;;13.50;99.90;;;-148.53;100.00;63986.66;5064648;28;20454;-75
2023/05/14 06:23:21;;;;;;;8.73;7.10;;;13.70;99.90;;;-148.53;100.00;63986.66;5063919;28;20037;-74
2023/05/14 06:25:49;;;;;;;9.15;7.65;;;13.80;99.90;;;-148.53;100.00;63986.66;5066045;28;20044;-75
2023/05/14 06:28:15;;;;;;;10.65;7.43;;;13.90;99.90;;;-148.53;100.00;63986.66;5063772;28;20546;-75
2023/05/14 06:30:41;;;;;;;10.13;7.50;;;14.10;99.90;;;-148.53;100.00;63986.66;5066898;28;20135;-75
2023/05/14 06:33:06;;;;;;;8.70;7.70;;;14.20;99.90;;;-148.53;100.00;63986.66;5066557;28;20032;-74
2023/05/14 06:35:33;;;;;;;9.90;7.03;;;14.30;99.90;;;-148.53;100.00;63986.66;5065335;28;20043;-73
2023/05/14 06:37:59;;;;;;;10.20;7.95;;;14.50;99.90;;;-148.53;100.00;63986.66;5074384;28;20106;-75
2023/05/14 06:40:25;;;;;;;10.80;7.85;;;14.60;99.90;;;-148.53;100.00;63986.66;5074004;28;20480;-74
2023/05/14 06:42:50;;;;;;;10.27;7.05;;;14.80;99.90;;;-148.53;100.00;63986.66;5068501;28;20119;-75
2023/05/14 06:45:16;;;;;;;9.80;7.03;;;14.90;99.90;;;-148.53;100.00;63986.66;5073846;28;20520;-74
2023/05/14 06:47:42;;;;;;;12.48;7.00;;;15.00;99.90;;;-148.53;100.00;63986.66;5070155;28;20052;-74
2023/05/14 06:50:08;;;;;;;8.50;6.43;;;15.20;99.90;;;-148.53;100.00;63986.66;5072655;28;20040;-75
2023/05/14 06:52:34;;;;;;;8.27;6.85;;;15.20;99.90;;;-148.53;100.00;63986.66;5071929;28;20032;-74
2023/05/14 06:54:59;;;;;;;8.57;7.20;;;15.30;99.90;;;-148.53;100.00;63986.66;5072934;28;20678;-73
2023/05/14 06:57:25;;;;;;;9.00;6.75;;;15.40;99.90;;;-148.53;100.00;63986.66;5071290;28;20048;-73
2023/05/14 06:59:51;;;;;;;11.10;7.47;;;15.50;99.90;;;-148.53;100.00;63986.66;5064671;28;20048;-73
2023/05/14 07:02:16;;;;;;;9.20;7.20;;;15.60;99.90;;;-148.53;100.00;63986.66;5058639;28;20470;-73
2023/05/14 07:04:42;;;;;;;7.70;6.45;;;15.70;99.90;;;-148.53;100.00;63986.66;5056103;28;20439;-73
2023/05/14 07:07:09;;;;;;;8.40;6.60;;;15.90;99.90;;;-148.53;100.00;63986.66;5057975;28;20028;-74
2023/05/14 07:09:35;;;;;;;9.82;7.28;;;16.00;99.90;;;-148.53;100.00;63986.66;5058318;28;20476;-75
2023/05/14 07:12:00;;;;;;;9.35;6.75;;;16.10;99.90;;;-148.53;100.00;63986.66;5063674;28;20108;-74
2023/05/14 07:14:26;;;;;;;8.23;6.50;;;16.30;99.90;;;-148.53;100.00;63986.66;5059630;28;20047;-74
2023/05/14 07:16:52;;;;;;;8.15;6.95;;;16.30;99.90;;;-148.53;100.00;63986.66;5060722;28;20550;-74
2023/05/14 07:19:17;;;;;;;8.25;6.18;;;16.40;99.90;;;-148.53;100.00;63986.66;5057222;28;20138;-74
2023/05/14 07:21:43;;;;;;;9.93;7.25;;;16.50;99.90;;;-148.53;100.00;63986.66;5057664;28;20513;-74
2023/05/14 07:24:09;;;;;;;9.75;6.60;;;16.60;99.90;;;-148.53;100.00;63986.66;5055457;28;20044;-75
2023/05/14 07:26:35;;;;;;;8.68;6.82;;;16.70;99.90;;;-148.53;100.00;63986.66;5057060;28;20463;-73
2023/05/14 07:29:00;;;;;;;9.63;6.75;;;16.90;99.90;;;-148.53;100.00;63986.66;5062400;28;20059;-74
2023/05/14 07:31:26;;;;;;;9.02;6.63;;;17.10;99.90;;;-148.53;100.00;63986.66;5062153;28;20029;-75
2023/05/14 07:33:52;;;;;;;8.00;6.20;;;17.20;99.90;;;-148.53;100.00;63986.66;5068552;28;20063;-81
2023/05/14 07:36:17;;;;;;;8.70;6.32;;;17.40;99.90;;;-148.53;100.00;63986.66;5072966;28;20049;-75
2023/05/14 07:38:43;;;;;;;8.85;6.60;;;17.50;99.90;;;-148.53;100.00;63986.66;5058020;28;20033;-75
2023/05/14 07:41:10;;;;;;;8.52;6.55;;;17.60;99.90;;;-148.53;100.00;63986.66;5059231;28;20079;-75
2023/05/14 07:43:37;;;;;;;8.35;6.45;;;17.80;99.90;;;-148.53;100.00;63986.66;5057763;28;20127;-74
2023/05/14 07:46:03;;;;;;;7.70;6.33;;;17.90;99.90;;;-148.53;100.00;63986.66;5056312;28;20048;-75
2023/05/14 07:48:29;;;;;;;8.45;6.22;;;18.10;99.90;;;-148.53;100.00;63986.66;5055645;28;20086;-74
2023/05/14 07:50:54;;;;;;;8.30;6.38;;;18.10;99.90;;;-148.53;100.00;63986.66;5051511;28;20119;-74
2023/05/14 07:53:20;;;;;;;7.95;6.00;;;18.40;99.90;;;-148.53;100.00;63986.66;5058358;28;20036;-76
2023/05/14 07:55:48;;;;;;;7.28;5.47;;;18.40;99.90;;;-148.53;100.00;63986.66;5051760;28;20060;-74
2023/05/14 07:58:13;;;;;;;7.30;5.95;;;18.60;99.90;;;-148.53;100.00;63986.66;5056945;28;20037;-74
2023/05/14 08:00:39;;;;;;;7.70;5.15;;;18.80;99.90;;;-148.53;100.00;63986.66;5051346;28;20031;-75
2023/05/14 08:03:05;;;;;;;8.05;5.82;;;18.90;99.90;;;-148.53;100.00;63986.66;5065528;28;20048;-75
2023/05/14 08:05:31;;;;;;;6.97;5.50;;;18.80;99.90;;;-148.53;100.00;63986.66;5056572;28;20095;-75
2023/05/14 08:07:57;;;;;;;7.88;4.95;;;18.70;99.90;;;-148.53;100.00;63986.66;5053953;28;20135;-75
2023/05/14 08:10:23;;;;;;;6.50;5.70;;;18.90;99.90;;;-148.53;100.00;63986.66;5055259;28;20041;-76
2023/05/14 08:12:48;;;;;;;10.32;6.10;;;19.10;99.90;;;-148.53;100.00;63986.66;5053437;28;20041;-76
2023/05/14 08:15:14;;;;;;;6.75;4.47;;;19.10;99.90;;;-148.53;100.00;63986.66;5053969;28;20144;-76
2023/05/14 08:17:40;;;;;;;5.22;3.80;;;19.20;99.90;;;-148.53;100.00;63986.66;5060790;28;20113;-75
2023/05/14 08:20:06;;;;;;;7.57;4.22;;;19.30;99.90;;;-148.53;100.00;63986.66;5064556;28;20507;-77
2023/05/14 08:22:32;;;;;;;5.78;4.35;;;19.30;99.90;;;-148.53;100.00;63986.66;5053622;28;20037;-76
2023/05/14 08:24:59;;;;;;;7.03;4.72;;;19.20;99.90;;;-148.53;100.00;63986.66;5054936;28;20059;-77
2023/05/14 08:27:26;;;;;;;7.55;4.47;;;19.20;99.90;;;-148.53;100.00;63986.66;5054919;28;20044;-77
2023/05/14 08:29:52;;;;;;;5.78;4.00;;;19.30;99.90;;;-148.53;100.00;63986.66;5058133;28;20059;-76
2023/05/14 08:32:18;;;;;;;6.57;4.10;;;19.40;99.90;;;-148.53;100.00;63986.66;5056838;28;20411;-76
2023/05/14 08:34:43;;;;;;;6.88;4.60;;;19.50;99.90;;;-148.53;100.00;63986.66;5054446;28;20060;-78
2023/05/14 08:37:09;;;;;;;7.63;5.20;;;19.50;99.90;;;-148.53;100.00;63986.66;5050956;28;20455;-78
2023/05/14 08:39:35;;;;;;;6.68;5.10;;;19.60;99.80;;;-148.53;100.00;63986.66;5052048;28;20043;-78
2023/05/14 08:42:06;;;;;;;6.80;4.78;;;19.50;99.60;;;-148.53;100.00;63986.66;5052967;28;20044;-78
2023/05/14 08:44:51;;;;;;;7.00;4.68;;;19.50;99.50;;;-148.53;100.00;63986.66;5056534;28;20048;-78
2023/05/14 08:47:20;;;;;;;6.47;4.40;;;19.60;98.90;;;-148.53;100.00;63986.66;5053167;28;20477;-78
2023/05/14 08:49:59;;;;;;;7.53;4.57;;;19.80;99.80;;;-148.53;100.00;63986.66;5068608;28;20044;-78
2023/05/14 08:52:25;;;;;;;6.22;4.40;;;20.00;99.90;;;-148.53;100.00;63986.66;5060224;28;20464;-77
2023/05/14 08:54:55;;;;;;;5.60;3.90;;;;;;;-148.53;100.00;63986.66;5052969;28;20044;-77
2023/05/14 08:57:25;;;;;;;5.22;4.30;;;20.20;98.80;;;-148.53;100.00;63986.66;5053536;28;20033;-77
2023/05/14 08:59:52;;;;;;;7.00;4.43;;;20.80;98.00;;;-148.53;100.00;63986.66;5051705;28;20060;-77
2023/05/14 09:02:23;;;;;;;8.35;4.10;;;20.90;99.30;;;-148.53;100.00;63986.66;5054028;28;20037;-77
2023/05/14 09:04:57;;;;;;;5.63;3.83;;;21.00;97.80;;;-148.53;100.00;63986.66;5053819;28;20048;-77
2023/05/14 09:07:24;;;;;;;13.57;8.52;;;21.10;96.20;;;-148.53;100.00;63986.66;5057353;28;20059;-78
2023/05/14 09:09:54;;;;;;;8.55;4.07;;;21.30;95.10;;;-148.53;100.00;63986.66;5053669;28;20044;-78
2023/05/14 09:12:20;;;;;;;5.40;3.67;;;21.30;92.60;;;-148.53;100.00;63986.66;5052781;28;20037;-77
2023/05/14 09:14:48;;;;;;;5.63;3.70;;;21.30;92.20;;;-148.53;100.00;63986.66;5052872;28;20048;-77
2023/05/14 09:17:15;;;;;;;5.60;3.72;;;21.30;93.30;;;-148.53;100.00;63986.66;5052960;28;20033;-78
2023/05/14 09:19:42;;;;;;;5.28;3.63;;;21.30;93.00;;;-148.53;100.00;63986.66;5051646;28;20115;-78
2023/05/14 09:22:13;;;;;;;5.97;3.53;;;21.30;92.50;;;-148.53;100.00;63986.66;5059553;28;20408;-78
2023/05/14 09:24:40;;;;;;;5.28;3.70;;;21.30;92.60;;;-148.53;100.00;63986.66;5062820;28;20143;-78
2023/05/14 09:27:07;;;;;;;5.80;4.38;;;21.60;92.30;;;-148.53;100.00;63986.66;5052850;28;20045;-78
2023/05/14 09:29:33;;;;;;;5.70;3.55;;;;;;;-148.53;100.00;63986.66;5052485;28;20431;-77
2023/05/14 09:32:03;;;;;;;5.65;3.45;;;;;;;-148.53;100.00;63986.66;5052110;28;20037;-78
2023/05/14 09:34:36;;;;;;;4.20;3.20;;;;;;;-148.53;100.00;63986.66;5052067;28;20409;-78
2023/05/14 09:37:07;;;;;;;4.20;2.92;;;21.60;92.50;;;-148.53;100.00;63986.66;5052309;28;20044;-78
2023/05/14 09:39:37;;;;;;;6.30;3.40;;;22.30;86.80;;;-148.53;100.00;63986.66;5055815;28;20419;-78
2023/05/14 09:42:03;;;;;;;4.20;3.17;;;22.10;84.50;;;-148.53;100.00;63986.66;5052298;28;20036;-78
2023/05/14 09:44:29;;;;;;;4.22;3.33;;;22.20;85.10;;;-148.53;100.00;63986.66;5062418;28;20037;-77
2023/05/14 09:46:55;;;;;;;4.05;3.10;;;22.30;82.10;;;-148.53;100.00;63986.66;5051544;28;20056;-78
2023/05/14 09:49:21;;;;;;;4.00;3.13;;;22.70;82.40;;;-148.53;100.00;63986.66;5052749;28;20099;-78
2023/05/14 09:51:49;;;;;;;4.72;3.10;;;;;;;-148.53;100.00;63986.66;5062582;28;20052;-78
2023/05/14 09:54:15;;;;;;;5.38;3.45;;;;;;;-148.53;100.00;63986.66;5053800;28;20033;-77
2023/05/14 09:56:42;;;;;;;5.45;3.03;;;;;;;-148.53;100.00;63986.66;5051248;28;20477;-78